createdAt,value
2023-03-31T00:01:00.955Z,99600.47
2023-03-31T00:03:29.613Z,99591.31
2023-03-31T00:05:58.867Z,99588.16
2023-03-31T00:08:30.760Z,99582.97
2023-03-31T00:11:01.543Z,99580.28
2023-03-31T00:13:32.366Z,99588.50
2023-03-31T00:16:02.499Z,99584.66
2023-03-31T00:18:31.907Z,99582.75
2023-03-31T00:21:09.650Z,99580.53
2023-03-31T00:23:37.717Z,99573.88
2023-03-31T00:26:06.477Z,99576.47
2023-03-31T00:28:36.381Z,99581.59
2023-03-31T00:31:05.232Z,99580.78
2023-03-31T00:33:33.504Z,99565.06
2023-03-31T00:36:02.356Z,99573.09
2023-03-31T00:38:31.195Z,99574.41
2023-03-31T00:40:59.670Z,99578.38
2023-03-31T00:43:33.253Z,99562.13
2023-03-31T00:46:08.906Z,99565.69
2023-03-31T00:48:39.384Z,99559.34
2023-03-31T00:51:09.119Z,99556.66
2023-03-31T00:53:38.621Z,99551.59
2023-03-31T00:56:11.215Z,99551.44
2023-03-31T00:58:43.962Z,99568.28
2023-03-31T01:01:18.134Z,99563.91
2023-03-31T01:03:48.223Z,99545.81
2023-03-31T01:06:21.097Z,99540.72
2023-03-31T01:08:52.573Z,99544.69
2023-03-31T01:11:23.278Z,99549.47
2023-03-31T01:13:56.334Z,99555.22
2023-03-31T01:16:26.112Z,99562.03
2023-03-31T01:18:57.646Z,99554.28
2023-03-31T01:22:05.655Z,99560.00
2023-03-31T01:25:08.697Z,99567.63
2023-03-31T01:27:54.243Z,99553.19
2023-03-31T01:30:58.513Z,99561.16
2023-03-31T01:34:01.522Z,99562.94
2023-03-31T01:36:55.149Z,99554.84
2023-03-31T01:39:44.177Z,99549.78
2023-03-31T01:42:16.407Z,99547.06
2023-03-31T01:44:51.960Z,99538.22
2023-03-31T01:47:25.776Z,99535.78
2023-03-31T01:50:03.501Z,99537.38
2023-03-31T01:52:39.758Z,99531.97
2023-03-31T01:55:13.936Z,99529.16
2023-03-31T01:57:46.875Z,99530.59
2023-03-31T02:00:18.418Z,99523.78
2023-03-31T02:02:51.654Z,99522.41
2023-03-31T02:05:23.700Z,99522.94
2023-03-31T02:07:56.411Z,99523.25
2023-03-31T02:10:28.018Z,99514.09
2023-03-31T02:12:58.261Z,99517.28
2023-03-31T02:15:31.410Z,99509.41
2023-03-31T02:18:06.332Z,99506.44
2023-03-31T02:20:36.899Z,99512.00
2023-03-31T02:23:06.615Z,99508.84
2023-03-31T02:25:46.484Z,99513.59
2023-03-31T02:28:20.016Z,99506.03
2023-03-31T02:30:58.131Z,99505.44
2023-03-31T02:33:26.402Z,99506.06
2023-03-31T02:35:54.722Z,99507.81
2023-03-31T02:38:25.851Z,99500.88
2023-03-31T02:40:55.647Z,99510.50
2023-03-31T02:43:23.805Z,99507.97
2023-03-31T02:45:53.303Z,99512.69
2023-03-31T02:48:24.188Z,99515.03
2023-03-31T02:51:29.778Z,99514.88
2023-03-31T02:54:19.261Z,99512.91
2023-03-31T02:57:03.284Z,99512.88
2023-03-31T02:59:42.819Z,99507.00
2023-03-31T03:02:20.519Z,99518.25
2023-03-31T03:05:08.794Z,99514.91
2023-03-31T03:07:46.349Z,99518.31
2023-03-31T03:10:21.271Z,99518.13
2023-03-31T03:12:59.396Z,99529.22
2023-03-31T03:15:33.074Z,99528.31
2023-03-31T03:18:01.417Z,99531.78
2023-03-31T03:20:29.711Z,99528.78
2023-03-31T03:22:57.900Z,99536.22
2023-03-31T03:25:26.360Z,99537.13
2023-03-31T03:27:55.847Z,99544.13
2023-03-31T03:30:24.852Z,99539.97
2023-03-31T03:32:54.783Z,99548.69
2023-03-31T03:35:23.020Z,99542.09
2023-03-31T03:37:51.169Z,99542.28
2023-03-31T03:40:20.991Z,99547.34
2023-03-31T03:42:49.179Z,99540.66
2023-03-31T03:45:18.925Z,99542.72
2023-03-31T03:47:47.652Z,99548.63
2023-03-31T03:50:35.976Z,99542.88
2023-03-31T03:53:04.191Z,99530.19
2023-03-31T03:55:34.657Z,99527.19
2023-03-31T03:58:02.753Z,99550.00
2023-03-31T04:00:32.588Z,99536.59
2023-03-31T04:03:01.956Z,99535.63
2023-03-31T04:05:30.287Z,99546.94
2023-03-31T04:07:58.477Z,99535.97
2023-03-31T04:10:27.153Z,99536.94
2023-03-31T04:12:59.579Z,99539.31
2023-03-31T04:15:30.776Z,99528.72
2023-03-31T04:18:00.764Z,99529.03
2023-03-31T04:20:30.799Z,99523.94
2023-03-31T04:22:59.502Z,99517.13
2023-03-31T04:25:30.971Z,99512.44
2023-03-31T04:27:59.600Z,99517.47
2023-03-31T04:30:31.868Z,99510.00
2023-03-31T04:33:04.258Z,99507.25
2023-03-31T04:35:49.722Z,99507.66
2023-03-31T04:38:20.224Z,99502.69
2023-03-31T04:40:50.080Z,99504.28
2023-03-31T04:43:19.383Z,99506.56
2023-03-31T04:45:48.033Z,99505.97
2023-03-31T04:48:17.965Z,99505.25
2023-03-31T04:50:48.404Z,99514.50
2023-03-31T04:53:18.008Z,99516.94
2023-03-31T04:55:46.406Z,99503.09
2023-03-31T04:58:14.584Z,99504.91
2023-03-31T05:00:43.070Z,99498.38
2023-03-31T05:03:11.747Z,99493.84
2023-03-31T05:05:41.436Z,99489.38
2023-03-31T05:08:11.694Z,99489.97
2023-03-31T05:10:40.846Z,99482.09
2023-03-31T05:13:10.941Z,99464.56
2023-03-31T05:15:40.041Z,99462.13
2023-03-31T05:18:08.687Z,99450.06
2023-03-31T05:20:36.917Z,99442.22
2023-03-31T05:23:07.333Z,99443.06
2023-03-31T05:25:37.772Z,99451.59
2023-03-31T05:28:10.041Z,99447.88
2023-03-31T05:30:38.201Z,99448.66
2023-03-31T05:33:06.922Z,99446.38
2023-03-31T05:35:35.128Z,99449.78
2023-03-31T05:38:03.366Z,99441.03
2023-03-31T05:40:32.986Z,99436.31
2023-03-31T05:43:01.238Z,99439.69
2023-03-31T05:45:29.870Z,99435.88
2023-03-31T05:47:58.173Z,99442.28
2023-03-31T05:50:26.357Z,99436.91
2023-03-31T05:52:54.731Z,99436.47
2023-03-31T05:55:23.115Z,99438.13
2023-03-31T05:57:53.184Z,99433.41
2023-03-31T06:00:22.018Z,99430.72
2023-03-31T06:02:50.204Z,99425.78
2023-03-31T06:05:18.698Z,99421.72
2023-03-31T06:07:47.277Z,99425.31
2023-03-31T06:10:15.673Z,99421.94
2023-03-31T06:12:44.231Z,99420.16
2023-03-31T06:15:13.871Z,99419.72
2023-03-31T06:17:42.339Z,99428.03
2023-03-31T06:20:24.648Z,99437.84
2023-03-31T06:22:56.920Z,99429.53
2023-03-31T06:25:25.224Z,99430.97
2023-03-31T06:27:53.508Z,99434.34
2023-03-31T06:30:23.383Z,99418.94
2023-03-31T06:32:51.840Z,99420.84
2023-03-31T06:35:20.478Z,99426.91
2023-03-31T06:37:49.277Z,99411.84
2023-03-31T06:40:17.965Z,99416.44
2023-03-31T06:42:46.122Z,99418.59
2023-03-31T06:45:14.714Z,99424.09
2023-03-31T06:47:44.390Z,99418.47
2023-03-31T06:50:12.729Z,99409.59
2023-03-31T06:52:42.126Z,99406.63
2023-03-31T06:55:11.155Z,99407.94
2023-03-31T06:57:39.383Z,99403.38
2023-03-31T07:00:09.451Z,99406.47
2023-03-31T07:02:38.238Z,99407.38
2023-03-31T07:05:09.104Z,99402.06
2023-03-31T07:07:37.343Z,99396.19
2023-03-31T07:10:07.140Z,99399.50
2023-03-31T07:12:35.654Z,99401.28
2023-03-31T07:17:51.275Z,99404.91
2023-03-31T07:20:21.634Z,99395.19
2023-03-31T07:22:50.399Z,99401.19
2023-03-31T07:25:20.021Z,99394.25
2023-03-31T07:27:48.897Z,99402.47
2023-03-31T07:30:19.929Z,99402.31
2023-03-31T07:32:49.798Z,99391.81
2023-03-31T07:35:20.087Z,99394.09
2023-03-31T07:37:51.283Z,99405.25
2023-03-31T07:40:22.153Z,99404.91
2023-03-31T07:42:52.534Z,99407.34
2023-03-31T07:45:25.330Z,99391.59
2023-03-31T07:47:54.174Z,99404.31
2023-03-31T07:50:23.764Z,99395.22
2023-03-31T07:52:54.163Z,99395.00
2023-03-31T07:55:23.885Z,99390.47
2023-03-31T07:57:52.391Z,99378.78
2023-03-31T08:00:21.545Z,99379.66
2023-03-31T08:02:50.339Z,99388.31
2023-03-31T08:05:21.622Z,99382.13
2023-03-31T08:07:51.551Z,99378.47
2023-03-31T08:10:23.639Z,99372.09
2023-03-31T08:12:53.441Z,99362.22
2023-03-31T08:15:21.894Z,99350.06
2023-03-31T08:17:50.684Z,99349.19
2023-03-31T08:20:18.943Z,99334.97
2023-03-31T08:22:47.867Z,99327.72
2023-03-31T08:25:16.477Z,99320.53
2023-03-31T08:27:48.928Z,99314.16
2023-03-31T08:30:17.980Z,99311.19
2023-03-31T08:32:46.514Z,99300.28
2023-03-31T08:35:16.094Z,99298.81
2023-03-31T08:37:44.575Z,99291.47
2023-03-31T08:40:18.091Z,99296.59
2023-03-31T08:42:50.955Z,99290.16
2023-03-31T08:45:23.606Z,99291.03
2023-03-31T08:47:58.727Z,99285.66
2023-03-31T08:50:31.836Z,99276.25
2023-03-31T08:53:06.060Z,99277.16
2023-03-31T08:55:43.210Z,99271.72
2023-03-31T08:58:22.339Z,99264.81
2023-03-31T09:00:58.644Z,99249.66
2023-03-31T09:03:34.972Z,99236.81
2023-03-31T09:06:09.053Z,99222.72
2023-03-31T09:08:39.279Z,99224.28
2023-03-31T09:11:20.418Z,99222.72
2023-03-31T09:14:19.970Z,99207.44
2023-03-31T09:16:54.840Z,99210.44
2023-03-31T09:19:34.855Z,99200.63
2023-03-31T09:22:05.214Z,99198.19
2023-03-31T09:24:40.907Z,99201.53
2023-03-31T09:27:13.408Z,99190.50
2023-03-31T09:29:47.326Z,99190.03
2023-03-31T09:32:17.968Z,99183.81
2023-03-31T09:34:48.094Z,99184.66
2023-03-31T09:37:16.294Z,99172.47
2023-03-31T09:39:44.648Z,99163.94
2023-03-31T09:42:14.554Z,99163.41
2023-03-31T09:44:47.449Z,99152.75
2023-03-31T09:47:22.968Z,99151.59
2023-03-31T09:49:53.649Z,99158.31
2023-03-31T09:52:30.175Z,99146.50
2023-03-31T09:55:02.277Z,99157.31
2023-03-31T09:57:34.124Z,99149.44
2023-03-31T10:00:16.550Z,99142.31
2023-03-31T10:02:51.070Z,99139.47
2023-03-31T10:05:31.099Z,99140.31
2023-03-31T10:08:27.478Z,99129.94
2023-03-31T10:10:57.474Z,99130.25
2023-03-31T10:13:29.756Z,99124.31
2023-03-31T10:16:08.731Z,99117.94
2023-03-31T10:18:38.871Z,99115.25
2023-03-31T10:21:09.146Z,99119.88
2023-03-31T10:23:37.691Z,99116.66
2023-03-31T10:26:06.880Z,99104.91
2023-03-31T10:28:37.319Z,99102.22
2023-03-31T10:31:09.926Z,99094.06
2023-03-31T10:33:45.822Z,99092.19
2023-03-31T10:36:22.638Z,99104.19
2023-03-31T10:38:52.825Z,99092.19
2023-03-31T10:41:23.331Z,99073.59
2023-03-31T10:43:53.087Z,99071.50
2023-03-31T10:46:40.878Z,99064.78
2023-03-31T10:49:17.365Z,99065.69
2023-03-31T10:51:56.277Z,99056.59
2023-03-31T10:54:24.740Z,99052.91
2023-03-31T10:56:56.223Z,99048.94
2023-03-31T10:59:54.027Z,99039.66
2023-03-31T11:02:46.867Z,99038.44
2023-03-31T11:05:18.906Z,99036.13
2023-03-31T11:08:00.674Z,99026.28
2023-03-31T11:10:40.735Z,99022.69
2023-03-31T11:13:18.464Z,99003.22
2023-03-31T11:15:56.094Z,99004.88
2023-03-31T11:18:43.656Z,99008.47
2023-03-31T11:21:21.564Z,98992.59
2023-03-31T11:23:59.009Z,98991.59
2023-03-31T11:26:39.598Z,98992.00
2023-03-31T11:29:21.078Z,98984.25
2023-03-31T11:31:56.627Z,98978.44
2023-03-31T11:34:44.453Z,98970.72
2023-03-31T11:37:35.615Z,98959.25
2023-03-31T11:40:23.061Z,98966.50
2023-03-31T11:42:56.331Z,98951.72
2023-03-31T11:45:29.042Z,98956.34
2023-03-31T11:48:04.904Z,98945.59
2023-03-31T11:50:40.098Z,98956.69
2023-03-31T11:53:17.161Z,98943.03
2023-03-31T11:55:48.697Z,98943.31
2023-03-31T11:58:20.193Z,98958.41
2023-03-31T12:00:53.074Z,98952.91
2023-03-31T12:03:26.161Z,98936.09
2023-03-31T12:06:03.318Z,98938.94
2023-03-31T12:08:38.573Z,98947.31
2023-03-31T12:11:28.120Z,98927.13
2023-03-31T12:14:03.378Z,98926.03
2023-03-31T12:16:41.791Z,98929.44
2023-03-31T12:19:17.556Z,98920.16
2023-03-31T12:21:52.954Z,98918.84
2023-03-31T12:24:21.276Z,98905.13
2023-03-31T12:27:01.066Z,98919.91
2023-03-31T12:29:34.223Z,98908.53
2023-03-31T12:32:07.060Z,98923.44
2023-03-31T12:34:44.434Z,98918.94
2023-03-31T12:37:48.200Z,98919.91
2023-03-31T12:40:28.455Z,98932.75
2023-03-31T12:43:13.226Z,98905.50
2023-03-31T12:45:48.436Z,98910.00
2023-03-31T12:48:37.672Z,98906.72
2023-03-31T12:51:18.817Z,98898.25
2023-03-31T12:54:02.733Z,98895.69
2023-03-31T12:57:15.566Z,98896.41
2023-03-31T12:59:46.095Z,98902.81
2023-03-31T13:02:25.443Z,98887.41
2023-03-31T13:04:55.178Z,98880.34
2023-03-31T13:07:50.303Z,98877.56
2023-03-31T13:10:29.579Z,98876.81
2023-03-31T13:13:03.284Z,98858.59
2023-03-31T13:15:32.954Z,98844.38
2023-03-31T13:18:06.744Z,98859.16
2023-03-31T13:20:38.737Z,98846.25
2023-03-31T13:23:16.126Z,98841.28
2023-03-31T13:25:51.462Z,98839.63
2023-03-31T13:28:43.474Z,98845.31
2023-03-31T13:31:13.998Z,98829.56
2023-03-31T13:33:48.524Z,98840.06
2023-03-31T13:36:31.953Z,98818.19
2023-03-31T13:39:16.790Z,98821.50
2023-03-31T13:41:54.943Z,98833.66
2023-03-31T13:44:56.850Z,98830.59
2023-03-31T13:47:50.919Z,98835.00
2023-03-31T13:50:38.463Z,98817.22
2023-03-31T13:53:20.286Z,98815.44
2023-03-31T13:56:11.642Z,98809.34
2023-03-31T13:59:05.367Z,98802.94
2023-03-31T14:01:59.218Z,98799.72
2023-03-31T14:05:04.604Z,98797.09
2023-03-31T14:07:37.330Z,98796.44
2023-03-31T14:10:07.496Z,98791.69
2023-03-31T14:12:38.653Z,98789.84
2023-03-31T14:15:21.333Z,98779.44
2023-03-31T14:17:49.782Z,98785.44
2023-03-31T14:20:33.471Z,98788.63
2023-03-31T14:23:13.414Z,98794.56
2023-03-31T14:25:50.923Z,98791.69
2023-03-31T14:28:41.723Z,98790.38
2023-03-31T14:31:21.788Z,98778.41
2023-03-31T14:34:08.563Z,98777.63
2023-03-31T14:36:46.846Z,98770.91
2023-03-31T14:39:20.066Z,98772.44
2023-03-31T14:41:54.904Z,98768.03
2023-03-31T14:44:24.275Z,98766.50
2023-03-31T14:46:54.075Z,98772.09
2023-03-31T14:49:26.559Z,98770.91
2023-03-31T14:51:57.396Z,98768.47
2023-03-31T14:54:28.638Z,98769.44
2023-03-31T14:57:02.258Z,98768.22
2023-03-31T14:59:34.521Z,98761.72
2023-03-31T15:02:06.321Z,98756.56
2023-03-31T15:04:45.260Z,98768.03
2023-03-31T15:07:14.701Z,98761.94
2023-03-31T15:09:49.700Z,98758.84
2023-03-31T15:12:21.064Z,98759.59
2023-03-31T15:14:52.619Z,98759.16
2023-03-31T15:17:26.425Z,98753.94
2023-03-31T15:19:59.656Z,98757.56
2023-03-31T15:22:31.231Z,98764.41
2023-03-31T15:24:59.912Z,98761.28
2023-03-31T15:27:37.748Z,98757.97
2023-03-31T15:30:09.273Z,98766.63
2023-03-31T15:32:42.789Z,98762.41
2023-03-31T15:35:22.840Z,98760.09
2023-03-31T15:37:53.529Z,98767.75
2023-03-31T15:40:25.010Z,98768.72
2023-03-31T15:45:50.674Z,98770.88
2023-03-31T15:48:23.644Z,98757.53
2023-03-31T15:50:53.416Z,98759.88
2023-03-31T15:53:28.562Z,98753.78
2023-03-31T15:55:59.952Z,98750.34
2023-03-31T15:58:54.422Z,98746.91
2023-03-31T16:01:24.379Z,98752.53
2023-03-31T16:03:56.752Z,98746.25
2023-03-31T16:06:39.923Z,98744.78
2023-03-31T16:09:09.653Z,98743.56
2023-03-31T16:11:43.210Z,98752.59
2023-03-31T16:14:20.238Z,98758.19
2023-03-31T16:16:53.081Z,98742.28
2023-03-31T16:19:27.454Z,98739.03
2023-03-31T16:21:59.707Z,98737.25
2023-03-31T16:24:32.413Z,98735.94
2023-03-31T16:27:06.418Z,98734.25
2023-03-31T16:29:35.705Z,98739.13
2023-03-31T16:32:12.688Z,98735.09
2023-03-31T16:34:57.233Z,98741.97
2023-03-31T16:37:29.009Z,98737.47
2023-03-31T16:39:58.347Z,98733.25
2023-03-31T16:42:27.341Z,98733.44
2023-03-31T16:45:12.692Z,98733.47
2023-03-31T16:47:44.651Z,98734.91
2023-03-31T16:50:15.848Z,98736.31
2023-03-31T16:52:45.493Z,98738.88
2023-03-31T16:55:13.805Z,98734.78
2023-03-31T16:57:42.197Z,98739.31
2023-03-31T17:00:11.903Z,98736.41
2023-03-31T17:02:40.125Z,98741.75
2023-03-31T17:05:13.104Z,98743.13
2023-03-31T17:07:43.421Z,98747.59
2023-03-31T17:10:12.999Z,98746.53
2023-03-31T17:12:42.734Z,98746.94
2023-03-31T17:15:12.115Z,98750.91
2023-03-31T17:17:40.428Z,98745.56
2023-03-31T17:20:10.535Z,98744.84
2023-03-31T17:22:38.608Z,98747.25
2023-03-31T17:25:09.212Z,98748.69
2023-03-31T17:27:37.768Z,98745.22
2023-03-31T17:30:07.360Z,98751.16
2023-03-31T17:32:36.033Z,98744.25
2023-03-31T17:35:04.593Z,98740.81
2023-03-31T17:37:33.182Z,98743.19
2023-03-31T17:40:01.470Z,98752.22
2023-03-31T17:42:31.745Z,98753.13
2023-03-31T17:44:59.961Z,98748.53
2023-03-31T17:47:28.347Z,98742.38
2023-03-31T17:49:56.799Z,98746.00
2023-03-31T17:52:25.200Z,98748.84
2023-03-31T17:54:53.530Z,98755.19
2023-03-31T17:57:21.674Z,98749.84
2023-03-31T17:59:51.453Z,98751.44
2023-03-31T18:02:19.925Z,98747.63
2023-03-31T18:04:48.059Z,98745.75
2023-03-31T18:07:18.295Z,98744.63
2023-03-31T18:09:46.836Z,98752.97
2023-03-31T18:12:15.075Z,98754.22
2023-03-31T18:14:43.485Z,98756.63
2023-03-31T18:17:15.059Z,98753.22
2023-03-31T18:19:43.267Z,98749.81
2023-03-31T18:22:11.990Z,98746.81
2023-03-31T18:24:40.945Z,98746.50
2023-03-31T18:27:09.185Z,98741.50
2023-03-31T18:29:39.519Z,98747.88
2023-03-31T18:32:08.076Z,98754.94
2023-03-31T18:34:38.502Z,98761.66
2023-03-31T18:37:06.718Z,98754.31
2023-03-31T18:39:35.806Z,98757.88
2023-03-31T18:42:04.317Z,98746.97
2023-03-31T18:44:32.782Z,98746.63
2023-03-31T18:47:01.056Z,98749.78
2023-03-31T18:49:30.083Z,98749.81
2023-03-31T18:51:59.723Z,98749.47
2023-03-31T18:54:28.092Z,98742.09
2023-03-31T18:56:56.952Z,98744.91
2023-03-31T18:59:25.523Z,98744.16
2023-03-31T19:01:53.819Z,98759.41
2023-03-31T19:04:21.994Z,98768.72
2023-03-31T19:06:50.437Z,98761.31
2023-03-31T19:09:22.400Z,98764.06
2023-03-31T19:11:50.557Z,98757.47
2023-03-31T19:14:18.654Z,98755.91
2023-03-31T19:16:46.959Z,98762.88
2023-03-31T19:19:15.341Z,98759.41
2023-03-31T19:21:44.887Z,98754.06
2023-03-31T19:24:13.393Z,98752.19
2023-03-31T19:26:43.787Z,98748.72
2023-03-31T19:29:12.857Z,98742.88
2023-03-31T19:31:41.585Z,98741.72
2023-03-31T19:34:12.335Z,98745.66
2023-03-31T19:36:40.507Z,98742.56
2023-03-31T19:39:08.700Z,98736.31
2023-03-31T19:41:37.125Z,98735.94
2023-03-31T19:44:06.920Z,98739.88
2023-03-31T19:46:35.124Z,98734.78
2023-03-31T19:49:05.623Z,98737.16
2023-03-31T19:51:33.765Z,98737.56
2023-03-31T19:54:02.121Z,98743.44
2023-03-31T19:56:31.658Z,98740.34
2023-03-31T19:59:00.362Z,98734.13
2023-03-31T20:01:30.015Z,98738.41
2023-03-31T20:03:58.879Z,98735.72
2023-03-31T20:06:32.061Z,98738.84
2023-03-31T20:09:01.506Z,98744.66
2023-03-31T20:11:32.225Z,98741.56
2023-03-31T20:14:00.956Z,98732.63
2023-03-31T20:16:32.273Z,98738.06
2023-03-31T20:19:04.187Z,98728.75
2023-03-31T20:21:35.511Z,98727.16
2023-03-31T20:24:04.978Z,98737.28
2023-03-31T20:26:36.623Z,98728.69
2023-03-31T20:29:05.217Z,98741.13
2023-03-31T20:31:41.220Z,98734.94
2023-03-31T20:34:12.998Z,98729.47
2023-03-31T20:36:42.475Z,98722.06
2023-03-31T20:39:12.430Z,98715.88
2023-03-31T20:41:41.552Z,98715.09
2023-03-31T20:44:13.584Z,98717.41
2023-03-31T20:46:46.716Z,98708.09
2023-03-31T20:49:15.204Z,98701.47
2023-03-31T20:51:45.276Z,98710.38
2023-03-31T20:54:13.693Z,98708.81
2023-03-31T20:56:43.027Z,98709.19
2023-03-31T20:59:13.442Z,98706.47
2023-03-31T21:01:43.037Z,98714.25
2023-03-31T21:04:13.373Z,98712.28
2023-03-31T21:06:43.500Z,98709.94
2023-03-31T21:09:13.069Z,98719.25
2023-03-31T21:11:41.750Z,98716.09
2023-03-31T21:14:14.234Z,98716.44
2023-03-31T21:16:43.016Z,98717.63
2023-03-31T21:19:12.869Z,98713.34
2023-03-31T21:21:43.595Z,98727.66
2023-03-31T21:24:13.944Z,98721.09
2023-03-31T21:26:42.178Z,98721.47
2023-03-31T21:29:10.741Z,98707.06
2023-03-31T21:31:38.976Z,98719.06
2023-03-31T21:34:07.242Z,98721.34
2023-03-31T21:36:36.863Z,98722.41
2023-03-31T21:39:05.474Z,98720.81
2023-03-31T21:41:33.701Z,98715.72
2023-03-31T21:44:03.490Z,98718.81
2023-03-31T21:46:33.821Z,98712.97
2023-03-31T21:49:02.616Z,98714.13
2023-03-31T21:51:31.124Z,98714.53
2023-03-31T21:54:00.726Z,98716.75
2023-03-31T21:56:31.997Z,98718.63
2023-03-31T21:59:01.515Z,98721.72
2023-03-31T22:01:29.765Z,98730.22
2023-03-31T22:03:58.059Z,98723.28
2023-03-31T22:06:26.614Z,98725.16
2023-03-31T22:08:54.863Z,98730.22
2023-03-31T22:11:24.936Z,98721.25
2023-03-31T22:13:53.226Z,98723.59
2023-03-31T22:16:23.884Z,98716.56
2023-03-31T22:18:53.036Z,98716.16
2023-03-31T22:21:22.959Z,98713.44
2023-03-31T22:23:53.759Z,98719.69
2023-03-31T22:26:22.068Z,98722.81
2023-03-31T22:28:52.464Z,98720.03
2023-03-31T22:31:20.774Z,98719.94
2023-03-31T22:33:49.272Z,98720.69
2023-03-31T22:36:17.396Z,98719.91
2023-03-31T22:38:45.721Z,98722.63
2023-03-31T22:41:13.915Z,98715.56
2023-03-31T22:43:44.559Z,98723.66
2023-03-31T22:46:16.354Z,98713.88
2023-03-31T22:48:44.402Z,98710.78
2023-03-31T22:51:12.464Z,98700.69
2023-03-31T22:53:40.771Z,98700.25
2023-03-31T22:56:11.982Z,98698.63
2023-03-31T22:58:40.330Z,98702.09
2023-03-31T23:01:09.953Z,98701.31
2023-03-31T23:03:40.085Z,98699.38
2023-03-31T23:06:08.750Z,98688.91
2023-03-31T23:08:37.938Z,98693.09
2023-03-31T23:11:07.714Z,98697.25
2023-03-31T23:13:36.580Z,98687.53
2023-03-31T23:16:06.755Z,98683.22
2023-03-31T23:18:36.018Z,98675.47
2023-03-31T23:21:07.825Z,98673.53
2023-03-31T23:23:35.966Z,98677.38
2023-03-31T23:26:04.624Z,98670.41
2023-03-31T23:28:35.604Z,98677.78
2023-03-31T23:31:07.462Z,98670.72
2023-03-31T23:33:35.583Z,98672.66
2023-03-31T23:36:05.882Z,98666.78
2023-03-31T23:38:35.963Z,98661.34
2023-03-31T23:41:05.408Z,98659.81
2023-03-31T23:43:33.601Z,98653.97
2023-03-31T23:46:03.026Z,98662.84
2023-03-31T23:48:31.170Z,98673.69
2023-03-31T23:50:59.279Z,98656.59
2023-03-31T23:53:27.591Z,98658.94
2023-03-31T23:55:59.248Z,98665.13
2023-03-31T23:58:28.186Z,98674.75
